createdAt,value
2023-05-14T00:02:45.598Z,12.23
2023-05-14T00:07:47.637Z,12.13
2023-05-14T00:12:49.228Z,12.16
2023-05-14T00:17:51.252Z,12.16
2023-05-14T00:22:52.970Z,12.15
2023-05-14T00:27:54.585Z,12.20
2023-05-14T00:32:56.259Z,11.97
2023-05-14T00:37:58.460Z,11.96
2023-05-14T00:43:00.269Z,11.98
2023-05-14T00:48:02.006Z,11.96
2023-05-14T00:53:10.050Z,11.84
2023-05-14T00:58:13.429Z,11.81
2023-05-14T01:03:15.146Z,11.86
2023-05-14T01:08:27.802Z,11.84
2023-05-14T01:13:47.072Z,11.66
2023-05-14T01:18:50.868Z,11.40
2023-05-14T01:23:52.544Z,11.46
2023-05-14T01:29:03.023Z,11.45
2023-05-14T01:34:06.845Z,11.57
2023-05-14T01:39:09.703Z,11.59
2023-05-14T01:44:11.936Z,11.46
2023-05-14T01:49:13.731Z,11.46
2023-05-14T01:54:15.422Z,11.40
2023-05-14T01:59:17.603Z,11.26
2023-05-14T02:04:20.780Z,11.26
2023-05-14T02:09:22.758Z,11.23
2023-05-14T02:14:24.386Z,11.16
2023-05-14T02:19:26.233Z,11.05
2023-05-14T02:24:27.979Z,11.04
2023-05-14T02:29:30.371Z,10.95
2023-05-14T02:34:34.318Z,10.91
2023-05-14T02:39:36.460Z,10.90
2023-05-14T02:44:38.352Z,10.94
2023-05-14T02:49:40.364Z,10.99
2023-05-14T02:54:42.034Z,10.93
2023-05-14T02:59:43.753Z,11.00
2023-05-14T03:04:45.700Z,10.92
2023-05-14T03:09:47.417Z,11.00
2023-05-14T03:14:49.101Z,11.02
2023-05-14T03:19:50.794Z,11.07
2023-05-14T03:24:52.417Z,11.03
2023-05-14T03:29:54.214Z,11.09
2023-05-14T03:34:56.240Z,11.15
2023-05-14T03:39:57.849Z,11.24
2023-05-14T03:44:59.431Z,11.27
2023-05-14T03:50:01.146Z,11.21
2023-05-14T03:55:03.553Z,11.22
2023-05-14T04:00:05.818Z,11.19
2023-05-14T04:05:18.229Z,11.21
2023-05-14T04:10:20.525Z,11.24
2023-05-14T04:15:22.565Z,11.16
2023-05-14T04:20:24.405Z,11.13
2023-05-14T04:25:26.181Z,11.16
2023-05-14T04:30:27.809Z,11.22
2023-05-14T04:35:29.547Z,11.25
2023-05-14T04:40:31.825Z,11.18
2023-05-14T04:45:34.518Z,11.15
2023-05-14T04:50:36.153Z,11.13
2023-05-14T04:55:37.748Z,11.13
2023-05-14T05:00:40.840Z,11.08
2023-05-14T05:05:42.508Z,11.10
2023-05-14T05:10:44.257Z,11.04
2023-05-14T05:15:46.105Z,11.07
2023-05-14T05:20:47.994Z,11.05
2023-05-14T05:25:50.509Z,11.10
2023-05-14T05:30:52.157Z,11.12
2023-05-14T05:35:53.857Z,11.11
2023-05-14T05:40:55.516Z,11.20
2023-05-14T05:45:57.087Z,11.26
2023-05-14T05:50:58.824Z,11.29
2023-05-14T05:56:00.429Z,11.31
2023-05-14T06:01:02.422Z,11.35
2023-05-14T06:06:04.360Z,11.39
2023-05-14T06:11:06.104Z,11.37
2023-05-14T06:16:07.902Z,11.27
2023-05-14T06:21:09.543Z,11.17
2023-05-14T06:26:11.221Z,11.11
2023-05-14T06:31:13.711Z,10.97
2023-05-14T06:36:15.505Z,10.98
2023-05-14T06:41:17.213Z,10.90
2023-05-14T06:46:18.824Z,10.92
2023-05-14T06:51:20.569Z,10.94
2023-05-14T06:56:22.496Z,10.93
2023-05-14T07:01:24.263Z,10.92
2023-05-14T07:06:26.213Z,10.99
2023-05-14T07:11:28.020Z,11.03
2023-05-14T07:16:29.988Z,11.00
2023-05-14T07:21:32.704Z,10.90
2023-05-14T07:26:34.906Z,10.94
2023-05-14T07:31:36.915Z,11.00
2023-05-14T07:36:39.477Z,11.04
2023-05-14T07:41:43.681Z,11.05
2023-05-14T07:46:45.892Z,11.03
2023-05-14T07:51:47.703Z,11.02
2023-05-14T07:56:49.618Z,10.98
2023-05-14T08:01:51.646Z,10.89
2023-05-14T08:06:53.398Z,10.79
2023-05-14T08:11:55.031Z,10.96
2023-05-14T08:16:56.708Z,10.85
2023-05-14T08:21:58.678Z,10.89
2023-05-14T08:27:00.608Z,11.01
2023-05-14T08:32:08.729Z,11.10
2023-05-14T08:37:21.339Z,11.15
2023-05-14T08:42:25.668Z,11.14
2023-05-14T08:47:30.383Z,11.00
2023-05-14T08:52:32.948Z,11.09
2023-05-14T08:57:35.612Z,10.96
2023-05-14T09:02:39.764Z,11.10
2023-05-14T09:07:41.695Z,11.05
2023-05-14T09:12:43.501Z,11.22
2023-05-14T09:17:48.039Z,11.28
2023-05-14T09:22:53.688Z,11.29
2023-05-14T09:27:58.640Z,11.27
2023-05-14T09:33:01.639Z,11.31
2023-05-14T09:38:03.453Z,11.29
2023-05-14T09:43:07.354Z,11.46
2023-05-14T09:48:09.135Z,11.35
2023-05-14T09:53:11.772Z,11.21
2023-05-14T09:58:16.370Z,11.42
2023-05-14T10:03:20.500Z,11.48
2023-05-14T10:08:26.872Z,11.59
2023-05-14T10:13:33.080Z,11.75
2023-05-14T10:18:43.785Z,11.82
2023-05-14T10:23:47.084Z,11.88
2023-05-14T10:28:48.855Z,11.88
2023-05-14T10:33:51.244Z,11.98
2023-05-14T10:38:57.860Z,11.94
2023-05-14T10:43:59.735Z,11.93
2023-05-14T10:49:01.851Z,12.04
2023-05-14T10:54:03.641Z,12.13
2023-05-14T10:59:06.853Z,12.26
2023-05-14T11:04:17.907Z,12.38
2023-05-14T11:09:21.390Z,12.44
2023-05-14T11:14:23.345Z,12.52
2023-05-14T11:19:25.151Z,12.48
2023-05-14T11:24:26.786Z,12.45
2023-05-14T11:29:28.480Z,12.39
2023-05-14T11:34:30.148Z,12.45
2023-05-14T11:39:33.091Z,12.21
2023-05-14T11:44:34.974Z,12.14
2023-05-14T11:49:37.959Z,12.23
2023-05-14T11:54:41.001Z,12.38
2023-05-14T11:59:43.032Z,12.48
2023-05-14T12:04:49.497Z,12.54
2023-05-14T12:09:57.357Z,12.72
2023-05-14T12:14:59.928Z,12.79
2023-05-14T12:20:01.698Z,12.79
2023-05-14T12:25:04.040Z,12.82
2023-05-14T12:30:20.033Z,12.76
2023-05-14T12:35:23.584Z,12.66
2023-05-14T12:40:25.995Z,12.65
2023-05-14T12:45:28.189Z,12.69
2023-05-14T12:50:29.884Z,12.74
2023-05-14T12:55:31.876Z,12.77
2023-05-14T13:00:33.559Z,12.85
2023-05-14T13:05:35.942Z,12.87
2023-05-14T13:10:38.103Z,12.79
2023-05-14T13:15:39.734Z,12.78
2023-05-14T13:20:43.250Z,12.72
2023-05-14T13:25:45.782Z,12.91
2023-05-14T13:31:08.236Z,12.87
2023-05-14T13:36:12.092Z,13.00
2023-05-14T13:41:13.979Z,12.91
2023-05-14T13:46:15.753Z,12.79
2023-05-14T13:51:17.728Z,12.86
2023-05-14T13:56:19.791Z,12.81
2023-05-14T14:01:21.925Z,12.82
2023-05-14T14:06:25.687Z,12.74
2023-05-14T14:11:27.650Z,12.73
2023-05-14T14:16:29.531Z,12.68
2023-05-14T14:21:31.839Z,12.65
2023-05-14T14:26:33.789Z,12.53
2023-05-14T14:31:36.509Z,12.55
2023-05-14T14:36:38.226Z,12.41
2023-05-14T14:41:40.079Z,12.53
2023-05-14T14:46:42.970Z,12.56
2023-05-14T14:51:44.908Z,12.52
2023-05-14T14:56:49.223Z,12.50
2023-05-14T15:01:51.137Z,12.44
2023-05-14T15:06:52.769Z,12.46
2023-05-14T15:11:54.561Z,12.50
2023-05-14T15:16:56.239Z,12.48
2023-05-14T15:21:58.586Z,12.52
2023-05-14T15:27:00.417Z,12.46
2023-05-14T15:32:02.521Z,12.41
2023-05-14T15:37:04.415Z,12.36
2023-05-14T15:42:06.554Z,12.23
2023-05-14T15:47:08.225Z,12.21
2023-05-14T15:52:10.035Z,12.17
2023-05-14T15:57:14.569Z,12.06
2023-05-14T16:02:16.308Z,12.08
2023-05-14T16:07:17.972Z,12.13
2023-05-14T16:12:19.679Z,12.12
2023-05-14T16:17:21.315Z,12.05
2023-05-14T16:22:22.958Z,11.99
2023-05-14T16:27:24.986Z,12.05
2023-05-14T16:32:27.720Z,12.22
2023-05-14T16:37:29.610Z,12.20
2023-05-14T16:42:31.294Z,12.18
2023-05-14T16:47:33.010Z,12.14
2023-05-14T16:52:34.802Z,12.07
2023-05-14T16:57:36.740Z,12.19
2023-05-14T17:02:39.248Z,12.08
2023-05-14T17:07:41.355Z,12.20
2023-05-14T17:12:43.472Z,12.25
2023-05-14T17:17:52.675Z,12.29
2023-05-14T17:22:54.511Z,12.19
2023-05-14T17:27:56.344Z,12.27
2023-05-14T17:32:58.603Z,12.20
2023-05-14T17:38:04.962Z,12.18
2023-05-14T17:48:35.051Z,12.30
2023-05-14T17:53:37.143Z,12.13
2023-05-14T17:58:41.617Z,12.05
2023-05-14T18:03:43.601Z,12.07
2023-05-14T18:08:45.350Z,11.94
2023-05-14T18:13:49.125Z,11.89
2023-05-14T18:18:51.918Z,12.05
2023-05-14T18:24:07.508Z,11.99
2023-05-14T18:29:09.243Z,12.00
2023-05-14T18:34:11.816Z,12.05
2023-05-14T18:39:14.740Z,12.02
2023-05-14T18:44:16.646Z,12.07
2023-05-14T18:49:18.409Z,12.16
2023-05-14T18:54:20.182Z,12.27
2023-05-14T18:59:21.845Z,12.29
2023-05-14T19:04:25.295Z,12.32
2023-05-14T19:09:27.069Z,12.27
2023-05-14T19:14:29.623Z,12.28
2023-05-14T19:19:31.581Z,12.31
2023-05-14T19:24:37.421Z,12.13
2023-05-14T19:29:41.359Z,12.14
2023-05-14T19:34:49.540Z,12.11
2023-05-14T19:40:22.216Z,12.28
2023-05-14T19:45:24.278Z,12.20
2023-05-14T19:50:26.388Z,12.34
2023-05-14T19:55:28.278Z,12.36
2023-05-14T20:00:30.003Z,12.45
2023-05-14T20:05:34.244Z,12.40
2023-05-14T20:10:35.912Z,12.30
2023-05-14T20:15:37.793Z,12.40
2023-05-14T20:20:39.995Z,12.30
2023-05-14T20:25:43.023Z,12.36
2023-05-14T20:30:44.720Z,12.44
2023-05-14T20:35:46.419Z,12.40
2023-05-14T20:40:48.348Z,12.39
2023-05-14T20:45:50.030Z,12.42
2023-05-14T20:50:51.678Z,12.57
2023-05-14T20:55:53.313Z,12.69
2023-05-14T21:00:54.973Z,12.69
2023-05-14T21:05:56.865Z,12.78
2023-05-14T21:10:59.067Z,12.77
2023-05-14T21:16:01.348Z,12.81
2023-05-14T21:21:03.319Z,12.91
2023-05-14T21:26:05.022Z,12.89
2023-05-14T21:31:06.662Z,12.61
2023-05-14T21:36:09.321Z,12.69
2023-05-14T21:41:11.006Z,12.70
2023-05-14T21:46:12.747Z,12.68
2023-05-14T21:51:14.566Z,12.68
2023-05-14T21:56:16.828Z,12.61
2023-05-14T22:01:18.590Z,12.54
2023-05-14T22:06:20.983Z,12.60
2023-05-14T22:11:22.666Z,12.56
2023-05-14T22:16:26.364Z,12.57
2023-05-14T22:21:28.762Z,12.58
2023-05-14T22:26:30.748Z,12.63
2023-05-14T22:31:32.982Z,12.67
2023-05-14T22:36:36.385Z,12.70
2023-05-14T22:41:38.163Z,12.76
2023-05-14T22:46:39.859Z,12.80
2023-05-14T22:51:42.384Z,12.82
2023-05-14T22:56:44.076Z,12.85
2023-05-14T23:01:45.884Z,12.73
2023-05-14T23:06:48.347Z,12.70
2023-05-14T23:11:50.358Z,12.69
2023-05-14T23:16:52.260Z,12.65
2023-05-14T23:21:53.942Z,12.76
2023-05-14T23:26:55.895Z,12.75
2023-05-14T23:31:57.603Z,12.82
2023-05-14T23:36:59.301Z,12.81
2023-05-14T23:42:01.103Z,12.81
2023-05-14T23:47:03.251Z,12.84
2023-05-14T23:52:05.293Z,12.80
2023-05-14T23:57:07.151Z,12.85
